Aérodrome :
LOGIN :

S'inscrire | Disclaimer

   EN    FR    IT 

 










Légende :    VFR   VFR Marginal   IFR   IFR Intensif   IFR Très Intensif
Visi : 
Plafond : 
>= 8 km
>= 3000ft
5 à 8 km
1000 à 3000 ft
1500m à 5 km
500 à 1000 ft
800 à 1500m
200 à 500 ft
< 800m
< 200 ft
Symboles :   Orages  Brouillard  Fortes neiges  Fortes précipitations  Vent > 20 kt
SIGMETs :   Divers  Orages  Givrage  Turbulence  Onde Orograph.  Cendres Volcan.






- Altitude de l'aérodrome : 28 ft
- Code IATA : SOZ


LFKS - Solenzara

DERNIER METAR :
  • 012200Z AUTO 27004KT 240V300 CAVOK 24/20 Q1016

METARs EXPIRÉS :
  • 012130Z AUTO 27003KT CAVOK 24/21 Q1016
  • 012100Z AUTO VRB02KT CAVOK 25/22 Q1016
  • 012030Z AUTO 33004KT 300V360 CAVOK 25/22 Q1016
  • 010530Z AUTO 33004KT 300V360 CAVOK 25/16 Q1013
  • 012000Z AUTO 33004KT CAVOK 25/22 Q1015
  • 011930Z AUTO 05004KT 9999 BKN035 25/23 Q1015

TAF AMD TAF LFKS
Valide du 01 à 05h jusqu'au 02 à 03h UTC


010500Z 0105/0203 27005KT 9999 FEW015 SCT140
BECMG 0106/0108 12010KT
BECMG 0118/0120 27005KT



MET'MAP, la Météo Aéronautique d'un coup d'oeil ! - Copyright ORBIFLY Décembre 2007 - Disclaimer

ORBIFLY MET'MAP TEAM :

Programmation & Développement : Alexandra Zaïnal
Sur une idée originale de : Baudouin d'Aumeries
Soutien technique & logistique : Manuel Goepfert
Assistance : Marc-Olivier Méhu




SOURCES & CREDITS :

   NOAA